sensor_id;sensor_type;location;lat;lon;timestamp;temperature;humidity
30174;DHT22;16985;50.814;8.530;2023-02-28T00:01:19;-0.40;95.90
30174;DHT22;16985;50.814;8.530;2023-02-28T00:03:47;-0.50;95.80
30174;DHT22;16985;50.814;8.530;2023-02-28T00:06:13;-0.50;96.00
30174;DHT22;16985;50.814;8.530;2023-02-28T00:08:40;-0.30;95.90
30174;DHT22;16985;50.814;8.530;2023-02-28T00:11:10;-0.50;95.80
30174;DHT22;16985;50.814;8.530;2023-02-28T00:13:41;-0.50;95.90
30174;DHT22;16985;50.814;8.530;2023-02-28T00:16:11;-0.50;96.10
30174;DHT22;16985;50.814;8.530;2023-02-28T00:18:39;-0.50;96.20
30174;DHT22;16985;50.814;8.530;2023-02-28T00:21:05;-0.50;96.30
30174;DHT22;16985;50.814;8.530;2023-02-28T00:23:31;-0.50;96.10
30174;DHT22;16985;50.814;8.530;2023-02-28T00:25:57;-0.40;96.20
30174;DHT22;16985;50.814;8.530;2023-02-28T00:28:23;-0.40;96.40
30174;DHT22;16985;50.814;8.530;2023-02-28T00:30:49;-0.40;96.50
30174;DHT22;16985;50.814;8.530;2023-02-28T00:33:16;-0.30;96.50
30174;DHT22;16985;50.814;8.530;2023-02-28T00:35:42;-0.30;96.70
30174;DHT22;16985;50.814;8.530;2023-02-28T00:38:08;-0.30;96.90
30174;DHT22;16985;50.814;8.530;2023-02-28T00:40:35;-0.30;96.70
30174;DHT22;16985;50.814;8.530;2023-02-28T00:43:01;-0.20;96.80
30174;DHT22;16985;50.814;8.530;2023-02-28T00:45:28;-0.30;96.90
30174;DHT22;16985;50.814;8.530;2023-02-28T00:47:54;-0.30;97.20
30174;DHT22;16985;50.814;8.530;2023-02-28T00:50:20;-0.20;97.30
30174;DHT22;16985;50.814;8.530;2023-02-28T00:52:46;-0.20;97.10
30174;DHT22;16985;50.814;8.530;2023-02-28T00:55:13;-0.20;97.20
30174;DHT22;16985;50.814;8.530;2023-02-28T00:57:40;-0.20;97.60
30174;DHT22;16985;50.814;8.530;2023-02-28T01:00:07;-0.20;97.50
30174;DHT22;16985;50.814;8.530;2023-02-28T01:02:34;-0.20;97.40
30174;DHT22;16985;50.814;8.530;2023-02-28T01:04:59;-0.20;97.40
30174;DHT22;16985;50.814;8.530;2023-02-28T01:07:28;-0.20;97.40
30174;DHT22;16985;50.814;8.530;2023-02-28T01:09:54;-0.20;97.50
30174;DHT22;16985;50.814;8.530;2023-02-28T01:12:20;-0.20;97.40
30174;DHT22;16985;50.814;8.530;2023-02-28T01:14:46;-0.20;97.50
30174;DHT22;16985;50.814;8.530;2023-02-28T01:17:12;-0.10;97.20
30174;DHT22;16985;50.814;8.530;2023-02-28T01:19:38;-0.10;97.20
30174;DHT22;16985;50.814;8.530;2023-02-28T01:22:05;-0.10;97.50
30174;DHT22;16985;50.814;8.530;2023-02-28T01:24:32;-0.20;97.70
30174;DHT22;16985;50.814;8.530;2023-02-28T01:26:58;-0.20;97.90
30174;DHT22;16985;50.814;8.530;2023-02-28T01:29:24;-0.20;98.00
30174;DHT22;16985;50.814;8.530;2023-02-28T01:31:52;-0.20;97.90
30174;DHT22;16985;50.814;8.530;2023-02-28T01:34:17;-0.20;97.80
30174;DHT22;16985;50.814;8.530;2023-02-28T01:36:44;-0.20;97.70
30174;DHT22;16985;50.814;8.530;2023-02-28T01:39:11;-0.10;97.60
30174;DHT22;16985;50.814;8.530;2023-02-28T01:41:38;-0.20;97.60
30174;DHT22;16985;50.814;8.530;2023-02-28T01:47:20;-0.10;97.50
30174;DHT22;16985;50.814;8.530;2023-02-28T01:49:46;-0.20;97.50
30174;DHT22;16985;50.814;8.530;2023-02-28T01:52:14;-0.20;97.50
30174;DHT22;16985;50.814;8.530;2023-02-28T01:54:46;-0.20;97.30
30174;DHT22;16985;50.814;8.530;2023-02-28T01:57:19;-0.20;97.30
30174;DHT22;16985;50.814;8.530;2023-02-28T01:59:54;-0.20;97.20
30174;DHT22;16985;50.814;8.530;2023-02-28T02:02:24;-0.20;97.30
30174;DHT22;16985;50.814;8.530;2023-02-28T02:07:25;-0.20;97.20
30174;DHT22;16985;50.814;8.530;2023-02-28T02:10:16;-0.20;96.90
30174;DHT22;16985;50.814;8.530;2023-02-28T02:16:00;-0.20;96.80
30174;DHT22;16985;50.814;8.530;2023-02-28T02:18:33;-0.30;96.60
30174;DHT22;16985;50.814;8.530;2023-02-28T02:26:58;-0.30;97.30
30174;DHT22;16985;50.814;8.530;2023-02-28T02:32:47;-0.40;96.70
30174;DHT22;16985;50.814;8.530;2023-02-28T02:35:52;-0.40;96.70
30174;DHT22;16985;50.814;8.530;2023-02-28T02:39:13;-0.40;96.60
30174;DHT22;16985;50.814;8.530;2023-02-28T02:41:38;-0.40;96.60
30174;DHT22;16985;50.814;8.530;2023-02-28T02:44:28;-0.40;96.50
30174;DHT22;16985;50.814;8.530;2023-02-28T02:47:05;-0.50;96.40
30174;DHT22;16985;50.814;8.530;2023-02-28T02:49:36;-0.50;96.60
30174;DHT22;16985;50.814;8.530;2023-02-28T02:52:10;-0.60;96.90
30174;DHT22;16985;50.814;8.530;2023-02-28T02:54:41;-0.60;96.90
30174;DHT22;16985;50.814;8.530;2023-02-28T02:57:15;-0.60;96.70
30174;DHT22;16985;50.814;8.530;2023-02-28T02:59:52;-0.70;96.70
30174;DHT22;16985;50.814;8.530;2023-02-28T03:02:21;-0.70;96.70
30174;DHT22;16985;50.814;8.530;2023-02-28T03:04:53;-0.70;96.70
30174;DHT22;16985;50.814;8.530;2023-02-28T03:07:26;-0.70;96.70
30174;DHT22;16985;50.814;8.530;2023-02-28T03:09:54;-0.70;96.70
30174;DHT22;16985;50.814;8.530;2023-02-28T03:12:25;-0.70;96.80
30174;DHT22;16985;50.814;8.530;2023-02-28T03:15:26;-0.70;96.70
30174;DHT22;16985;50.814;8.530;2023-02-28T03:18:10;-0.70;96.80
30174;DHT22;16985;50.814;8.530;2023-02-28T03:21:02;-0.70;96.80
30174;DHT22;16985;50.814;8.530;2023-02-28T03:27:08;-0.80;97.20
30174;DHT22;16985;50.814;8.530;2023-02-28T03:29:51;-0.90;97.00
30174;DHT22;16985;50.814;8.530;2023-02-28T03:32:33;-0.90;97.10
30174;DHT22;16985;50.814;8.530;2023-02-28T03:35:12;-0.90;97.00
30174;DHT22;16985;50.814;8.530;2023-02-28T03:37:50;-0.90;96.80
30174;DHT22;16985;50.814;8.530;2023-02-28T03:40:32;-1.00;96.80
30174;DHT22;16985;50.814;8.530;2023-02-28T03:43:03;-1.00;96.80
30174;DHT22;16985;50.814;8.530;2023-02-28T03:45:37;-1.00;96.80
30174;DHT22;16985;50.814;8.530;2023-02-28T03:48:10;-1.10;96.80
30174;DHT22;16985;50.814;8.530;2023-02-28T03:50:48;-1.10;96.90
30174;DHT22;16985;50.814;8.530;2023-02-28T03:53:32;-1.20;96.90
30174;DHT22;16985;50.814;8.530;2023-02-28T03:56:18;-1.20;97.00
30174;DHT22;16985;50.814;8.530;2023-02-28T03:59:07;-1.20;96.90
30174;DHT22;16985;50.814;8.530;2023-02-28T04:04:13;-1.30;96.80
30174;DHT22;16985;50.814;8.530;2023-02-28T04:06:40;-1.30;96.90
30174;DHT22;16985;50.814;8.530;2023-02-28T04:09:08;-1.30;96.90
30174;DHT22;16985;50.814;8.530;2023-02-28T04:14:08;-1.40;97.00
30174;DHT22;16985;50.814;8.530;2023-02-28T04:16:37;-1.40;97.10
30174;DHT22;16985;50.814;8.530;2023-02-28T04:19:05;-1.40;97.00
30174;DHT22;16985;50.814;8.530;2023-02-28T04:21:35;-1.50;97.20
30174;DHT22;16985;50.814;8.530;2023-02-28T04:24:05;-1.50;97.20
30174;DHT22;16985;50.814;8.530;2023-02-28T04:26:34;-1.50;97.10
30174;DHT22;16985;50.814;8.530;2023-02-28T04:29:03;-1.50;97.30
30174;DHT22;16985;50.814;8.530;2023-02-28T04:31:30;-1.50;97.30
30174;DHT22;16985;50.814;8.530;2023-02-28T04:33:56;-1.60;97.30
30174;DHT22;16985;50.814;8.530;2023-02-28T04:36:22;-1.60;97.30
30174;DHT22;16985;50.814;8.530;2023-02-28T04:38:48;-1.60;97.40
30174;DHT22;16985;50.814;8.530;2023-02-28T04:41:14;-1.60;97.50
30174;DHT22;16985;50.814;8.530;2023-02-28T04:43:41;-1.60;97.40
30174;DHT22;16985;50.814;8.530;2023-02-28T04:46:07;-1.60;97.50
30174;DHT22;16985;50.814;8.530;2023-02-28T04:48:35;-1.60;97.70
30174;DHT22;16985;50.814;8.530;2023-02-28T04:51:06;-1.70;98.00
30174;DHT22;16985;50.814;8.530;2023-02-28T04:53:32;-1.70;97.90
30174;DHT22;16985;50.814;8.530;2023-02-28T04:55:58;-1.70;98.00
30174;DHT22;16985;50.814;8.530;2023-02-28T04:58:24;-1.70;98.00
30174;DHT22;16985;50.814;8.530;2023-02-28T05:00:51;-1.70;98.00
30174;DHT22;16985;50.814;8.530;2023-02-28T05:03:17;-1.70;98.00
30174;DHT22;16985;50.814;8.530;2023-02-28T05:05:43;-1.70;98.20
30174;DHT22;16985;50.814;8.530;2023-02-28T05:08:09;-1.70;98.20
30174;DHT22;16985;50.814;8.530;2023-02-28T05:10:35;-1.70;98.00
30174;DHT22;16985;50.814;8.530;2023-02-28T05:13:01;-1.00;98.20
30174;DHT22;16985;50.814;8.530;2023-02-28T05:15:27;-1.70;97.90
30174;DHT22;16985;50.814;8.530;2023-02-28T05:17:54;-1.70;97.60
30174;DHT22;16985;50.814;8.530;2023-02-28T05:20:19;-1.70;97.60
30174;DHT22;16985;50.814;8.530;2023-02-28T05:22:46;-1.70;97.70
30174;DHT22;16985;50.814;8.530;2023-02-28T05:25:16;-1.80;97.50
30174;DHT22;16985;50.814;8.530;2023-02-28T05:27:44;-1.80;97.40
30174;DHT22;16985;50.814;8.530;2023-02-28T05:30:10;-1.80;97.80
30174;DHT22;16985;50.814;8.530;2023-02-28T05:32:38;-1.80;97.60
30174;DHT22;16985;50.814;8.530;2023-02-28T05:35:05;-1.80;97.50
30174;DHT22;16985;50.814;8.530;2023-02-28T05:37:31;-1.80;97.40
30174;DHT22;16985;50.814;8.530;2023-02-28T05:39:57;-1.80;97.60
30174;DHT22;16985;50.814;8.530;2023-02-28T05:42:23;-1.80;97.80
30174;DHT22;16985;50.814;8.530;2023-02-28T05:44:48;-1.80;97.70
30174;DHT22;16985;50.814;8.530;2023-02-28T05:47:14;-1.80;97.80
30174;DHT22;16985;50.814;8.530;2023-02-28T05:49:41;-1.80;97.70
30174;DHT22;16985;50.814;8.530;2023-02-28T05:52:07;-1.80;97.80
30174;DHT22;16985;50.814;8.530;2023-02-28T05:54:33;-1.70;97.60
30174;DHT22;16985;50.814;8.530;2023-02-28T05:56:59;-1.70;97.70
30174;DHT22;16985;50.814;8.530;2023-02-28T05:59:25;-1.70;97.80
30174;DHT22;16985;50.814;8.530;2023-02-28T06:01:51;-1.70;97.80
30174;DHT22;16985;50.814;8.530;2023-02-28T06:04:20;-1.60;97.90
30174;DHT22;16985;50.814;8.530;2023-02-28T06:06:50;-1.60;97.80
30174;DHT22;16985;50.814;8.530;2023-02-28T06:09:17;-0.50;98.10
30174;DHT22;16985;50.814;8.530;2023-02-28T06:11:43;-1.60;98.00
30174;DHT22;16985;50.814;8.530;2023-02-28T06:14:15;-1.50;97.90
30174;DHT22;16985;50.814;8.530;2023-02-28T06:16:42;-1.50;98.00
30174;DHT22;16985;50.814;8.530;2023-02-28T06:19:09;-0.80;98.10
30174;DHT22;16985;50.814;8.530;2023-02-28T06:21:35;-1.50;97.80
30174;DHT22;16985;50.814;8.530;2023-02-28T06:24:02;-1.50;97.70
30174;DHT22;16985;50.814;8.530;2023-02-28T06:26:28;-1.50;97.60
30174;DHT22;16985;50.814;8.530;2023-02-28T06:28:55;-1.50;97.50
30174;DHT22;16985;50.814;8.530;2023-02-28T06:31:21;-1.50;97.20
30174;DHT22;16985;50.814;8.530;2023-02-28T06:33:48;-1.50;97.00
30174;DHT22;16985;50.814;8.530;2023-02-28T06:36:15;-1.40;96.60
30174;DHT22;16985;50.814;8.530;2023-02-28T06:38:42;-1.40;96.00
30174;DHT22;16985;50.814;8.530;2023-02-28T06:41:09;-1.40;96.00
30174;DHT22;16985;50.814;8.530;2023-02-28T06:43:40;-1.40;96.00
30174;DHT22;16985;50.814;8.530;2023-02-28T06:46:08;-1.40;95.80
30174;DHT22;16985;50.814;8.530;2023-02-28T06:48:37;-1.30;95.60
30174;DHT22;16985;50.814;8.530;2023-02-28T06:51:05;-1.30;95.50
30174;DHT22;16985;50.814;8.530;2023-02-28T06:53:35;-1.30;95.10
30174;DHT22;16985;50.814;8.530;2023-02-28T06:56:09;-1.20;94.90
30174;DHT22;16985;50.814;8.530;2023-02-28T06:58:37;-1.20;94.60
30174;DHT22;16985;50.814;8.530;2023-02-28T07:01:05;-1.20;94.70
30174;DHT22;16985;50.814;8.530;2023-02-28T07:03:31;-1.20;94.50
30174;DHT22;16985;50.814;8.530;2023-02-28T07:05:57;-1.20;94.40
30174;DHT22;16985;50.814;8.530;2023-02-28T07:08:24;-1.20;94.00
30174;DHT22;16985;50.814;8.530;2023-02-28T07:10:54;-1.20;94.20
30174;DHT22;16985;50.814;8.530;2023-02-28T07:13:21;-1.10;94.00
30174;DHT22;16985;50.814;8.530;2023-02-28T07:15:58;-1.10;93.80
30174;DHT22;16985;50.814;8.530;2023-02-28T07:18:26;0.00;93.80
30174;DHT22;16985;50.814;8.530;2023-02-28T07:20:53;-1.00;93.40
30174;DHT22;16985;50.814;8.530;2023-02-28T07:23:19;-1.00;93.20
30174;DHT22;16985;50.814;8.530;2023-02-28T07:25:46;-0.90;93.30
30174;DHT22;16985;50.814;8.530;2023-02-28T07:28:12;-0.90;93.10
30174;DHT22;16985;50.814;8.530;2023-02-28T07:30:39;-0.80;92.80
30174;DHT22;16985;50.814;8.530;2023-02-28T07:33:05;-0.80;92.60
30174;DHT22;16985;50.814;8.530;2023-02-28T07:35:31;-0.70;92.50
30174;DHT22;16985;50.814;8.530;2023-02-28T07:37:58;-0.70;92.40
30174;DHT22;16985;50.814;8.530;2023-02-28T07:40:27;-0.70;92.30
30174;DHT22;16985;50.814;8.530;2023-02-28T07:42:53;-0.70;92.10
30174;DHT22;16985;50.814;8.530;2023-02-28T07:45:19;-0.60;91.90
30174;DHT22;16985;50.814;8.530;2023-02-28T07:47:45;-0.70;91.70
30174;DHT22;16985;50.814;8.530;2023-02-28T07:50:13;-0.60;91.70
30174;DHT22;16985;50.814;8.530;2023-02-28T07:52:40;-0.60;91.90
30174;DHT22;16985;50.814;8.530;2023-02-28T07:55:07;-0.50;91.40
30174;DHT22;16985;50.814;8.530;2023-02-28T07:57:34;-0.50;91.20
30174;DHT22;16985;50.814;8.530;2023-02-28T08:00:01;-0.50;91.10
30174;DHT22;16985;50.814;8.530;2023-02-28T08:02:37;-0.50;90.80
30174;DHT22;16985;50.814;8.530;2023-02-28T08:05:02;-0.50;90.70
30174;DHT22;16985;50.814;8.530;2023-02-28T08:07:28;-0.40;90.70
30174;DHT22;16985;50.814;8.530;2023-02-28T08:09:54;-0.40;90.50
30174;DHT22;16985;50.814;8.530;2023-02-28T08:12:20;-0.30;90.30
30174;DHT22;16985;50.814;8.530;2023-02-28T08:14:46;-0.30;90.20
30174;DHT22;16985;50.814;8.530;2023-02-28T08:17:12;-0.30;90.00
30174;DHT22;16985;50.814;8.530;2023-02-28T08:19:38;-0.20;89.80
30174;DHT22;16985;50.814;8.530;2023-02-28T08:22:04;-0.20;89.80
30174;DHT22;16985;50.814;8.530;2023-02-28T08:24:30;-0.10;89.70
30174;DHT22;16985;50.814;8.530;2023-02-28T08:26:56;-0.10;89.40
30174;DHT22;16985;50.814;8.530;2023-02-28T08:29:22;-0.10;89.00
30174;DHT22;16985;50.814;8.530;2023-02-28T08:31:48;0.00;88.80
30174;DHT22;16985;50.814;8.530;2023-02-28T08:34:15;0.00;88.40
30174;DHT22;16985;50.814;8.530;2023-02-28T08:36:42;0.10;88.20
30174;DHT22;16985;50.814;8.530;2023-02-28T08:39:10;0.10;88.00
30174;DHT22;16985;50.814;8.530;2023-02-28T08:41:36;0.20;87.80
30174;DHT22;16985;50.814;8.530;2023-02-28T08:44:02;0.20;87.60
30174;DHT22;16985;50.814;8.530;2023-02-28T08:46:28;0.30;87.70
30174;DHT22;16985;50.814;8.530;2023-02-28T08:48:55;0.30;87.50
30174;DHT22;16985;50.814;8.530;2023-02-28T08:51:24;0.40;87.10
30174;DHT22;16985;50.814;8.530;2023-02-28T08:53:55;0.40;86.90
30174;DHT22;16985;50.814;8.530;2023-02-28T08:56:23;0.50;86.40
30174;DHT22;16985;50.814;8.530;2023-02-28T08:58:50;0.50;86.20
30174;DHT22;16985;50.814;8.530;2023-02-28T09:01:18;0.60;86.10
30174;DHT22;16985;50.814;8.530;2023-02-28T09:03:47;0.60;85.70
30174;DHT22;16985;50.814;8.530;2023-02-28T09:06:15;0.70;85.50
30174;DHT22;16985;50.814;8.530;2023-02-28T09:08:41;0.70;85.10
30174;DHT22;16985;50.814;8.530;2023-02-28T09:11:07;0.80;85.10
30174;DHT22;16985;50.814;8.530;2023-02-28T09:13:34;0.80;84.00
30174;DHT22;16985;50.814;8.530;2023-02-28T09:16:03;0.80;83.80
30174;DHT22;16985;50.814;8.530;2023-02-28T09:18:30;0.90;84.40
30174;DHT22;16985;50.814;8.530;2023-02-28T09:20:56;1.60;85.10
30174;DHT22;16985;50.814;8.530;2023-02-28T09:23:24;1.00;84.20
30174;DHT22;16985;50.814;8.530;2023-02-28T09:25:52;1.10;84.50
30174;DHT22;16985;50.814;8.530;2023-02-28T09:28:19;1.10;83.80
30174;DHT22;16985;50.814;8.530;2023-02-28T09:30:48;1.10;83.50
30174;DHT22;16985;50.814;8.530;2023-02-28T09:33:16;1.10;83.60
30174;DHT22;16985;50.814;8.530;2023-02-28T09:35:42;1.10;83.40
30174;DHT22;16985;50.814;8.530;2023-02-28T09:38:09;1.10;83.20
30174;DHT22;16985;50.814;8.530;2023-02-28T09:40:38;1.10;82.50
30174;DHT22;16985;50.814;8.530;2023-02-28T09:43:22;1.00;82.00
30174;DHT22;16985;50.814;8.530;2023-02-28T09:46:23;1.00;82.60
30174;DHT22;16985;50.814;8.530;2023-02-28T09:49:08;1.00;82.80
30174;DHT22;16985;50.814;8.530;2023-02-28T09:51:52;1.00;82.90
30174;DHT22;16985;50.814;8.530;2023-02-28T09:54:23;1.00;82.80
30174;DHT22;16985;50.814;8.530;2023-02-28T09:57:19;1.00;83.20
30174;DHT22;16985;50.814;8.530;2023-02-28T10:11:44;1.20;81.80
30174;DHT22;16985;50.814;8.530;2023-02-28T10:17:03;1.20;81.20
30174;DHT22;16985;50.814;8.530;2023-02-28T10:19:44;1.30;81.70
30174;DHT22;16985;50.814;8.530;2023-02-28T10:22:26;1.30;81.40
30174;DHT22;16985;50.814;8.530;2023-02-28T10:25:04;1.20;81.50
30174;DHT22;16985;50.814;8.530;2023-02-28T10:27:40;1.30;81.90
30174;DHT22;16985;50.814;8.530;2023-02-28T10:30:09;1.50;82.80
30174;DHT22;16985;50.814;8.530;2023-02-28T10:32:37;1.60;82.60
30174;DHT22;16985;50.814;8.530;2023-02-28T10:35:15;1.70;82.20
30174;DHT22;16985;50.814;8.530;2023-02-28T10:37:43;1.90;82.20
30174;DHT22;16985;50.814;8.530;2023-02-28T10:45:40;2.40;80.60
30174;DHT22;16985;50.814;8.530;2023-02-28T10:50:51;2.60;79.30
30174;DHT22;16985;50.814;8.530;2023-02-28T10:58:25;2.80;77.20
30174;DHT22;16985;50.814;8.530;2023-02-28T11:00:56;2.80;77.50
30174;DHT22;16985;50.814;8.530;2023-02-28T11:03:32;2.80;77.30
30174;DHT22;16985;50.814;8.530;2023-02-28T11:06:05;2.80;77.00
30174;DHT22;16985;50.814;8.530;2023-02-28T11:08:33;2.70;76.50
30174;DHT22;16985;50.814;8.530;2023-02-28T11:11:04;2.70;76.50
30174;DHT22;16985;50.814;8.530;2023-02-28T11:13:36;2.70;76.30
30174;DHT22;16985;50.814;8.530;2023-02-28T11:16:07;2.70;75.90
30174;DHT22;16985;50.814;8.530;2023-02-28T11:18:53;2.60;75.60
30174;DHT22;16985;50.814;8.530;2023-02-28T11:21:28;2.70;76.70
30174;DHT22;16985;50.814;8.530;2023-02-28T11:25:01;2.80;77.00
30174;DHT22;16985;50.814;8.530;2023-02-28T11:29:59;3.00;77.00
30174;DHT22;16985;50.814;8.530;2023-02-28T11:32:29;3.00;76.70
30174;DHT22;16985;50.814;8.530;2023-02-28T11:37:37;3.00;75.80
30174;DHT22;16985;50.814;8.530;2023-02-28T11:40:18;3.00;75.60
30174;DHT22;16985;50.814;8.530;2023-02-28T11:46:07;3.00;75.60
30174;DHT22;16985;50.814;8.530;2023-02-28T11:51:57;3.10;75.90
30174;DHT22;16985;50.814;8.530;2023-02-28T11:54:44;3.20;76.00
30174;DHT22;16985;50.814;8.530;2023-02-28T11:57:51;3.30;76.20
30174;DHT22;16985;50.814;8.530;2023-02-28T12:09:40;3.50;74.70
30174;DHT22;16985;50.814;8.530;2023-02-28T12:15:56;3.40;74.10
30174;DHT22;16985;50.814;8.530;2023-02-28T12:21:01;3.40;74.80
30174;DHT22;16985;50.814;8.530;2023-02-28T12:23:52;3.30;74.70
30174;DHT22;16985;50.814;8.530;2023-02-28T12:26:37;3.30;74.70
30174;DHT22;16985;50.814;8.530;2023-02-28T12:29:14;3.30;74.70
30174;DHT22;16985;50.814;8.530;2023-02-28T12:31:48;3.30;75.10
30174;DHT22;16985;50.814;8.530;2023-02-28T12:34:19;3.30;75.00
30174;DHT22;16985;50.814;8.530;2023-02-28T12:36:47;3.40;75.20
30174;DHT22;16985;50.814;8.530;2023-02-28T12:39:29;3.50;76.30
30174;DHT22;16985;50.814;8.530;2023-02-28T12:42:10;3.60;76.10
30174;DHT22;16985;50.814;8.530;2023-02-28T12:45:22;3.70;76.10
30174;DHT22;16985;50.814;8.530;2023-02-28T12:47:55;3.90;76.00
30174;DHT22;16985;50.814;8.530;2023-02-28T12:50:24;4.00;74.80
30174;DHT22;16985;50.814;8.530;2023-02-28T12:53:06;4.10;74.10
30174;DHT22;16985;50.814;8.530;2023-02-28T12:55:42;4.20;73.40
30174;DHT22;16985;50.814;8.530;2023-02-28T12:58:39;4.30;73.40
30174;DHT22;16985;50.814;8.530;2023-02-28T13:01:33;4.40;74.10
30174;DHT22;16985;50.814;8.530;2023-02-28T13:05:01;4.60;74.10
30174;DHT22;16985;50.814;8.530;2023-02-28T13:07:38;4.70;73.60
30174;DHT22;16985;50.814;8.530;2023-02-28T13:10:08;4.90;73.00
30174;DHT22;16985;50.814;8.530;2023-02-28T13:12:34;5.00;71.50
30174;DHT22;16985;50.814;8.530;2023-02-28T13:15:08;5.00;71.30
30174;DHT22;16985;50.814;8.530;2023-02-28T13:17:48;5.10;72.70
30174;DHT22;16985;50.814;8.530;2023-02-28T13:20:21;5.30;71.90
30174;DHT22;16985;50.814;8.530;2023-02-28T13:22:53;5.40;71.70
30174;DHT22;16985;50.814;8.530;2023-02-28T13:28:12;5.40;69.90
30174;DHT22;16985;50.814;8.530;2023-02-28T13:44:14;5.70;69.00
30174;DHT22;16985;50.814;8.530;2023-02-28T13:57:52;5.90;68.30
30174;DHT22;16985;50.814;8.530;2023-02-28T14:06:29;6.00;66.90
30174;DHT22;16985;50.814;8.530;2023-02-28T14:09:03;6.00;67.10
30174;DHT22;16985;50.814;8.530;2023-02-28T14:11:40;6.00;66.80
30174;DHT22;16985;50.814;8.530;2023-02-28T14:14:09;6.10;67.30
30174;DHT22;16985;50.814;8.530;2023-02-28T14:17:04;6.50;67.80
30174;DHT22;16985;50.814;8.530;2023-02-28T14:19:32;6.20;68.00
30174;DHT22;16985;50.814;8.530;2023-02-28T14:28:23;6.20;66.00
30174;DHT22;16985;50.814;8.530;2023-02-28T14:37:33;6.00;65.40
30174;DHT22;16985;50.814;8.530;2023-02-28T14:40:04;6.00;65.70
30174;DHT22;16985;50.814;8.530;2023-02-28T14:42:37;6.00;66.00
30174;DHT22;16985;50.814;8.530;2023-02-28T14:45:18;6.10;66.50
30174;DHT22;16985;50.814;8.530;2023-02-28T14:47:45;6.10;65.90
30174;DHT22;16985;50.814;8.530;2023-02-28T14:50:23;6.10;65.90
30174;DHT22;16985;50.814;8.530;2023-02-28T14:52:53;6.10;66.20
30174;DHT22;16985;50.814;8.530;2023-02-28T14:55:28;5.90;65.80
30174;DHT22;16985;50.814;8.530;2023-02-28T14:58:05;5.90;66.10
30174;DHT22;16985;50.814;8.530;2023-02-28T15:00:48;5.90;66.60
30174;DHT22;16985;50.814;8.530;2023-02-28T15:03:24;5.80;66.40
30174;DHT22;16985;50.814;8.530;2023-02-28T15:06:02;5.80;66.30
30174;DHT22;16985;50.814;8.530;2023-02-28T15:08:30;5.80;66.50
30174;DHT22;16985;50.814;8.530;2023-02-28T15:11:02;5.70;66.70
30174;DHT22;16985;50.814;8.530;2023-02-28T15:16:24;5.60;66.70
30174;DHT22;16985;50.814;8.530;2023-02-28T15:21:32;5.60;67.10
30174;DHT22;16985;50.814;8.530;2023-02-28T15:24:06;5.50;68.70
30174;DHT22;16985;50.814;8.530;2023-02-28T15:26:39;5.50;67.50
30174;DHT22;16985;50.814;8.530;2023-02-28T15:29:12;5.50;67.60
30174;DHT22;16985;50.814;8.530;2023-02-28T15:31:44;5.40;67.50
30174;DHT22;16985;50.814;8.530;2023-02-28T15:34:25;5.30;67.80
30174;DHT22;16985;50.814;8.530;2023-02-28T15:37:30;5.20;68.30
30174;DHT22;16985;50.814;8.530;2023-02-28T15:39:54;5.20;67.70
30174;DHT22;16985;50.814;8.530;2023-02-28T15:42:23;5.10;67.90
30174;DHT22;16985;50.814;8.530;2023-02-28T15:44:54;5.00;67.70
30174;DHT22;16985;50.814;8.530;2023-02-28T15:47:26;5.00;68.20
30174;DHT22;16985;50.814;8.530;2023-02-28T15:49:58;4.90;68.50
30174;DHT22;16985;50.814;8.530;2023-02-28T15:55:17;4.80;69.30
30174;DHT22;16985;50.814;8.530;2023-02-28T15:57:54;4.60;69.10
30174;DHT22;16985;50.814;8.530;2023-02-28T16:00:26;4.60;69.40
30174;DHT22;16985;50.814;8.530;2023-02-28T16:02:53;4.50;69.90
30174;DHT22;16985;50.814;8.530;2023-02-28T16:05:29;4.40;70.30
30174;DHT22;16985;50.814;8.530;2023-02-28T16:08:17;4.40;71.30
30174;DHT22;16985;50.814;8.530;2023-02-28T16:10:43;4.30;70.50
30174;DHT22;16985;50.814;8.530;2023-02-28T16:13:11;4.20;71.00
30174;DHT22;16985;50.814;8.530;2023-02-28T16:15:42;4.10;71.20
30174;DHT22;16985;50.814;8.530;2023-02-28T16:18:11;4.00;71.40
30174;DHT22;16985;50.814;8.530;2023-02-28T16:20:37;3.90;71.80
30174;DHT22;16985;50.814;8.530;2023-02-28T16:23:04;3.90;71.70
30174;DHT22;16985;50.814;8.530;2023-02-28T16:25:47;3.80;72.20
30174;DHT22;16985;50.814;8.530;2023-02-28T16:28:24;3.70;72.80
30174;DHT22;16985;50.814;8.530;2023-02-28T16:30:52;3.70;72.70
30174;DHT22;16985;50.814;8.530;2023-02-28T16:33:18;3.50;72.70
30174;DHT22;16985;50.814;8.530;2023-02-28T16:35:44;3.40;73.10
30174;DHT22;16985;50.814;8.530;2023-02-28T16:38:10;3.40;74.60
30174;DHT22;16985;50.814;8.530;2023-02-28T16:40:38;3.40;74.90
30174;DHT22;16985;50.814;8.530;2023-02-28T16:43:07;3.40;75.20
30174;DHT22;16985;50.814;8.530;2023-02-28T16:45:35;3.30;75.60
30174;DHT22;16985;50.814;8.530;2023-02-28T16:48:01;3.20;75.70
30174;DHT22;16985;50.814;8.530;2023-02-28T16:50:29;3.20;75.90
30174;DHT22;16985;50.814;8.530;2023-02-28T16:52:55;3.10;76.00
30174;DHT22;16985;50.814;8.530;2023-02-28T16:55:25;3.00;75.60
30174;DHT22;16985;50.814;8.530;2023-02-28T16:57:54;3.00;76.00
30174;DHT22;16985;50.814;8.530;2023-02-28T17:00:22;3.00;76.80
30174;DHT22;16985;50.814;8.530;2023-02-28T17:02:48;3.00;77.20
30174;DHT22;16985;50.814;8.530;2023-02-28T17:05:14;2.90;77.20
30174;DHT22;16985;50.814;8.530;2023-02-28T17:07:44;2.80;77.50
30174;DHT22;16985;50.814;8.530;2023-02-28T17:10:20;2.80;77.70
30174;DHT22;16985;50.814;8.530;2023-02-28T17:12:48;2.80;77.70
30174;DHT22;16985;50.814;8.530;2023-02-28T17:15:15;2.70;77.30
30174;DHT22;16985;50.814;8.530;2023-02-28T17:17:43;2.70;77.70
30174;DHT22;16985;50.814;8.530;2023-02-28T17:20:14;2.60;77.70
30174;DHT22;16985;50.814;8.530;2023-02-28T17:22:48;2.60;78.10
30174;DHT22;16985;50.814;8.530;2023-02-28T17:25:17;2.50;78.10
30174;DHT22;16985;50.814;8.530;2023-02-28T17:27:43;2.50;78.60
30174;DHT22;16985;50.814;8.530;2023-02-28T17:30:22;2.40;79.00
30174;DHT22;16985;50.814;8.530;2023-02-28T17:32:50;2.40;79.00
30174;DHT22;16985;50.814;8.530;2023-02-28T17:35:15;2.40;79.30
30174;DHT22;16985;50.814;8.530;2023-02-28T17:37:41;2.40;79.60
30174;DHT22;16985;50.814;8.530;2023-02-28T17:40:20;2.40;79.40
30174;DHT22;16985;50.814;8.530;2023-02-28T17:42:47;2.40;79.40
30174;DHT22;16985;50.814;8.530;2023-02-28T17:45:14;2.40;79.50
30174;DHT22;16985;50.814;8.530;2023-02-28T17:47:42;2.30;79.80
30174;DHT22;16985;50.814;8.530;2023-02-28T17:50:14;2.20;80.10
30174;DHT22;16985;50.814;8.530;2023-02-28T17:52:42;2.20;80.50
30174;DHT22;16985;50.814;8.530;2023-02-28T17:55:09;2.10;80.60
30174;DHT22;16985;50.814;8.530;2023-02-28T17:57:35;2.10;80.80
30174;DHT22;16985;50.814;8.530;2023-02-28T18:00:01;2.00;81.10
30174;DHT22;16985;50.814;8.530;2023-02-28T18:02:37;2.00;81.00
30174;DHT22;16985;50.814;8.530;2023-02-28T18:05:02;2.00;81.00
30174;DHT22;16985;50.814;8.530;2023-02-28T18:07:30;1.90;81.40
30174;DHT22;16985;50.814;8.530;2023-02-28T18:09:55;1.90;81.50
30174;DHT22;16985;50.814;8.530;2023-02-28T18:12:21;1.90;81.50
30174;DHT22;16985;50.814;8.530;2023-02-28T18:14:47;1.80;81.70
30174;DHT22;16985;50.814;8.530;2023-02-28T18:17:13;1.70;82.00
30174;DHT22;16985;50.814;8.530;2023-02-28T18:19:39;1.70;81.90